sensor_id;sensor_type;location;lat;lon;timestamp;temperature;humidity
18880;DHT22;9572;52.378;13.404;2024-01-30T00:02:17;0.80;99.90
18880;DHT22;9572;52.378;13.404;2024-01-30T00:04:44;0.80;99.90
18880;DHT22;9572;52.378;13.404;2024-01-30T00:07:11;0.80;99.90
18880;DHT22;9572;52.378;13.404;2024-01-30T00:09:38;0.80;99.90
18880;DHT22;9572;52.378;13.404;2024-01-30T00:12:06;0.80;99.90
18880;DHT22;9572;52.378;13.404;2024-01-30T00:14:33;0.80;99.90
18880;DHT22;9572;52.378;13.404;2024-01-30T00:17:01;0.80;99.90
18880;DHT22;9572;52.378;13.404;2024-01-30T00:19:28;0.80;99.90
18880;DHT22;9572;52.378;13.404;2024-01-30T00:21:55;0.80;99.90
18880;DHT22;9572;52.378;13.404;2024-01-30T00:24:22;0.80;99.90
18880;DHT22;9572;52.378;13.404;2024-01-30T00:26:49;0.80;99.90
18880;DHT22;9572;52.378;13.404;2024-01-30T00:29:16;0.80;99.90
18880;DHT22;9572;52.378;13.404;2024-01-30T00:31:45;0.70;99.90
18880;DHT22;9572;52.378;13.404;2024-01-30T00:34:13;0.70;99.90
18880;DHT22;9572;52.378;13.404;2024-01-30T00:36:40;0.70;99.90
18880;DHT22;9572;52.378;13.404;2024-01-30T00:39:07;0.70;99.90
18880;DHT22;9572;52.378;13.404;2024-01-30T00:41:35;0.70;99.90
18880;DHT22;9572;52.378;13.404;2024-01-30T00:44:02;0.60;99.90
18880;DHT22;9572;52.378;13.404;2024-01-30T00:46:28;0.60;99.90
18880;DHT22;9572;52.378;13.404;2024-01-30T00:48:55;0.60;99.90
18880;DHT22;9572;52.378;13.404;2024-01-30T00:51:24;0.60;99.90
18880;DHT22;9572;52.378;13.404;2024-01-30T00:53:51;0.60;99.90
18880;DHT22;9572;52.378;13.404;2024-01-30T00:56:18;0.60;99.90
18880;DHT22;9572;52.378;13.404;2024-01-30T00:58:45;0.60;99.90
18880;DHT22;9572;52.378;13.404;2024-01-30T01:01:12;0.50;99.90
18880;DHT22;9572;52.378;13.404;2024-01-30T01:03:40;0.50;99.90
18880;DHT22;9572;52.378;13.404;2024-01-30T01:06:09;0.50;99.90
18880;DHT22;9572;52.378;13.404;2024-01-30T01:08:37;0.50;99.90
18880;DHT22;9572;52.378;13.404;2024-01-30T01:11:04;0.50;99.90
18880;DHT22;9572;52.378;13.404;2024-01-30T01:13:31;0.50;99.90
18880;DHT22;9572;52.378;13.404;2024-01-30T01:15:58;0.50;99.90
18880;DHT22;9572;52.378;13.404;2024-01-30T01:18:25;0.50;99.90
18880;DHT22;9572;52.378;13.404;2024-01-30T01:20:52;0.50;99.90
18880;DHT22;9572;52.378;13.404;2024-01-30T01:23:19;0.50;99.90
18880;DHT22;9572;52.378;13.404;2024-01-30T01:25:47;0.40;99.90
18880;DHT22;9572;52.378;13.404;2024-01-30T01:28:14;0.40;99.90
18880;DHT22;9572;52.378;13.404;2024-01-30T01:30:41;0.40;99.90
18880;DHT22;9572;52.378;13.404;2024-01-30T01:33:08;0.40;99.90
18880;DHT22;9572;52.378;13.404;2024-01-30T01:35:35;0.50;99.90
18880;DHT22;9572;52.378;13.404;2024-01-30T01:38:02;0.50;99.90
18880;DHT22;9572;52.378;13.404;2024-01-30T01:40:29;0.40;99.90
18880;DHT22;9572;52.378;13.404;2024-01-30T01:42:57;0.50;99.90
18880;DHT22;9572;52.378;13.404;2024-01-30T01:45:24;0.50;99.90
18880;DHT22;9572;52.378;13.404;2024-01-30T01:47:51;0.50;99.90
18880;DHT22;9572;52.378;13.404;2024-01-30T01:50:21;0.50;99.90
18880;DHT22;9572;52.378;13.404;2024-01-30T01:52:48;0.50;99.90
18880;DHT22;9572;52.378;13.404;2024-01-30T01:55:16;0.50;99.90
18880;DHT22;9572;52.378;13.404;2024-01-30T01:57:44;0.50;99.90
18880;DHT22;9572;52.378;13.404;2024-01-30T02:00:13;0.50;99.90
18880;DHT22;9572;52.378;13.404;2024-01-30T02:02:41;0.50;99.90
18880;DHT22;9572;52.378;13.404;2024-01-30T02:05:10;0.50;99.90
18880;DHT22;9572;52.378;13.404;2024-01-30T02:07:37;0.50;99.90
18880;DHT22;9572;52.378;13.404;2024-01-30T02:10:05;0.60;99.90
18880;DHT22;9572;52.378;13.404;2024-01-30T02:12:32;0.60;99.90
18880;DHT22;9572;52.378;13.404;2024-01-30T02:14:59;0.60;99.90
18880;DHT22;9572;52.378;13.404;2024-01-30T02:17:27;0.60;99.90
18880;DHT22;9572;52.378;13.404;2024-01-30T02:19:54;0.60;99.90
18880;DHT22;9572;52.378;13.404;2024-01-30T02:22:22;0.60;99.90
18880;DHT22;9572;52.378;13.404;2024-01-30T02:24:50;0.60;99.90
18880;DHT22;9572;52.378;13.404;2024-01-30T02:27:17;0.60;99.90
18880;DHT22;9572;52.378;13.404;2024-01-30T02:29:43;0.60;99.90
18880;DHT22;9572;52.378;13.404;2024-01-30T02:32:10;0.60;99.90
18880;DHT22;9572;52.378;13.404;2024-01-30T02:34:38;0.60;99.90
18880;DHT22;9572;52.378;13.404;2024-01-30T02:37:04;0.60;99.90
18880;DHT22;9572;52.378;13.404;2024-01-30T02:39:33;0.60;99.90
18880;DHT22;9572;52.378;13.404;2024-01-30T02:41:59;0.60;99.90
18880;DHT22;9572;52.378;13.404;2024-01-30T02:44:26;0.60;99.90
18880;DHT22;9572;52.378;13.404;2024-01-30T02:46:53;0.60;99.90
18880;DHT22;9572;52.378;13.404;2024-01-30T02:49:20;0.60;99.90
18880;DHT22;9572;52.378;13.404;2024-01-30T02:51:48;0.60;99.90
18880;DHT22;9572;52.378;13.404;2024-01-30T02:54:14;0.60;99.90
18880;DHT22;9572;52.378;13.404;2024-01-30T02:56:43;0.60;99.90
18880;DHT22;9572;52.378;13.404;2024-01-30T02:59:09;0.60;99.90
18880;DHT22;9572;52.378;13.404;2024-01-30T03:01:42;0.60;99.90
18880;DHT22;9572;52.378;13.404;2024-01-30T03:04:09;0.60;99.90
18880;DHT22;9572;52.378;13.404;2024-01-30T03:06:36;0.60;99.90
18880;DHT22;9572;52.378;13.404;2024-01-30T03:09:03;0.60;99.90
18880;DHT22;9572;52.378;13.404;2024-01-30T03:11:30;0.60;99.90
18880;DHT22;9572;52.378;13.404;2024-01-30T03:13:59;0.60;99.90
18880;DHT22;9572;52.378;13.404;2024-01-30T03:16:25;0.60;99.90
18880;DHT22;9572;52.378;13.404;2024-01-30T03:18:52;0.60;99.90
18880;DHT22;9572;52.378;13.404;2024-01-30T03:21:19;0.50;99.90
18880;DHT22;9572;52.378;13.404;2024-01-30T03:23:47;0.50;99.90
18880;DHT22;9572;52.378;13.404;2024-01-30T03:26:14;0.50;99.90
18880;DHT22;9572;52.378;13.404;2024-01-30T03:28:41;0.50;99.90
18880;DHT22;9572;52.378;13.404;2024-01-30T03:31:09;0.50;99.90
18880;DHT22;9572;52.378;13.404;2024-01-30T03:33:36;0.40;99.90
18880;DHT22;9572;52.378;13.404;2024-01-30T03:36:05;0.40;99.90
18880;DHT22;9572;52.378;13.404;2024-01-30T03:38:32;0.40;99.90
18880;DHT22;9572;52.378;13.404;2024-01-30T03:40:59;0.40;99.90
18880;DHT22;9572;52.378;13.404;2024-01-30T03:43:26;0.40;99.90
18880;DHT22;9572;52.378;13.404;2024-01-30T03:45:53;0.30;99.90
18880;DHT22;9572;52.378;13.404;2024-01-30T03:48:21;0.30;99.90
18880;DHT22;9572;52.378;13.404;2024-01-30T03:50:48;0.40;99.90
18880;DHT22;9572;52.378;13.404;2024-01-30T03:53:15;0.30;99.90
18880;DHT22;9572;52.378;13.404;2024-01-30T03:55:42;0.40;99.90
18880;DHT22;9572;52.378;13.404;2024-01-30T03:58:09;0.30;99.90
18880;DHT22;9572;52.378;13.404;2024-01-30T04:00:36;0.30;99.90
18880;DHT22;9572;52.378;13.404;2024-01-30T04:03:02;0.30;99.90
18880;DHT22;9572;52.378;13.404;2024-01-30T04:05:31;0.30;99.90
18880;DHT22;9572;52.378;13.404;2024-01-30T04:07:58;0.30;99.90
18880;DHT22;9572;52.378;13.404;2024-01-30T04:10:25;0.30;99.90
18880;DHT22;9572;52.378;13.404;2024-01-30T04:12:52;0.30;99.90
18880;DHT22;9572;52.378;13.404;2024-01-30T04:15:19;0.30;99.90
18880;DHT22;9572;52.378;13.404;2024-01-30T04:17:46;0.30;99.90
18880;DHT22;9572;52.378;13.404;2024-01-30T04:20:14;0.30;99.90
18880;DHT22;9572;52.378;13.404;2024-01-30T04:22:43;0.30;99.90
18880;DHT22;9572;52.378;13.404;2024-01-30T04:25:11;0.30;99.90
18880;DHT22;9572;52.378;13.404;2024-01-30T04:27:38;0.30;99.90
18880;DHT22;9572;52.378;13.404;2024-01-30T04:30:05;0.40;99.90
18880;DHT22;9572;52.378;13.404;2024-01-30T04:32:32;0.40;99.90
18880;DHT22;9572;52.378;13.404;2024-01-30T04:34:59;0.30;99.90
18880;DHT22;9572;52.378;13.404;2024-01-30T04:37:26;0.40;99.90
18880;DHT22;9572;52.378;13.404;2024-01-30T04:39:54;0.30;99.90
18880;DHT22;9572;52.378;13.404;2024-01-30T04:42:21;0.30;99.90
18880;DHT22;9572;52.378;13.404;2024-01-30T04:44:49;0.30;99.90
18880;DHT22;9572;52.378;13.404;2024-01-30T04:47:15;0.30;99.90
18880;DHT22;9572;52.378;13.404;2024-01-30T04:49:42;0.30;99.90
18880;DHT22;9572;52.378;13.404;2024-01-30T04:52:09;0.30;99.90
18880;DHT22;9572;52.378;13.404;2024-01-30T04:54:36;0.30;99.90
18880;DHT22;9572;52.378;13.404;2024-01-30T04:57:05;0.30;99.90
18880;DHT22;9572;52.378;13.404;2024-01-30T04:59:35;0.30;99.90
18880;DHT22;9572;52.378;13.404;2024-01-30T05:02:02;0.30;99.90
18880;DHT22;9572;52.378;13.404;2024-01-30T05:04:29;0.40;99.90
18880;DHT22;9572;52.378;13.404;2024-01-30T05:06:56;0.40;99.90
18880;DHT22;9572;52.378;13.404;2024-01-30T05:09:22;0.40;99.90
18880;DHT22;9572;52.378;13.404;2024-01-30T05:11:49;0.40;99.90
18880;DHT22;9572;52.378;13.404;2024-01-30T05:14:17;0.40;99.90
18880;DHT22;9572;52.378;13.404;2024-01-30T05:16:44;0.40;99.90
18880;DHT22;9572;52.378;13.404;2024-01-30T05:19:12;0.40;99.90
18880;DHT22;9572;52.378;13.404;2024-01-30T05:21:39;0.40;99.90
18880;DHT22;9572;52.378;13.404;2024-01-30T05:24:07;0.40;99.90
18880;DHT22;9572;52.378;13.404;2024-01-30T05:26:35;0.40;99.90
18880;DHT22;9572;52.378;13.404;2024-01-30T05:29:02;0.30;99.90
18880;DHT22;9572;52.378;13.404;2024-01-30T05:31:31;0.30;99.90
18880;DHT22;9572;52.378;13.404;2024-01-30T05:33:58;0.40;99.90
18880;DHT22;9572;52.378;13.404;2024-01-30T05:36:24;0.30;99.90
18880;DHT22;9572;52.378;13.404;2024-01-30T05:38:51;0.30;99.90
18880;DHT22;9572;52.378;13.404;2024-01-30T05:41:19;0.30;99.90
18880;DHT22;9572;52.378;13.404;2024-01-30T05:43:46;0.30;99.90
18880;DHT22;9572;52.378;13.404;2024-01-30T05:46:13;0.30;99.90
18880;DHT22;9572;52.378;13.404;2024-01-30T05:48:41;0.20;99.90
18880;DHT22;9572;52.378;13.404;2024-01-30T05:51:09;0.30;99.90
18880;DHT22;9572;52.378;13.404;2024-01-30T05:53:35;0.20;99.90
18880;DHT22;9572;52.378;13.404;2024-01-30T05:56:03;0.30;99.90
18880;DHT22;9572;52.378;13.404;2024-01-30T05:58:29;0.20;99.90
18880;DHT22;9572;52.378;13.404;2024-01-30T06:00:57;0.20;99.90
18880;DHT22;9572;52.378;13.404;2024-01-30T06:03:24;0.20;99.90
18880;DHT22;9572;52.378;13.404;2024-01-30T06:05:52;0.20;99.90
18880;DHT22;9572;52.378;13.404;2024-01-30T06:08:19;0.20;99.90
18880;DHT22;9572;52.378;13.404;2024-01-30T06:10:46;0.20;99.90
18880;DHT22;9572;52.378;13.404;2024-01-30T06:13:13;0.20;99.90
18880;DHT22;9572;52.378;13.404;2024-01-30T06:15:40;0.30;99.90
18880;DHT22;9572;52.378;13.404;2024-01-30T06:18:07;0.20;99.90
18880;DHT22;9572;52.378;13.404;2024-01-30T06:20:34;0.20;99.90
18880;DHT22;9572;52.378;13.404;2024-01-30T06:23:02;0.20;99.90
18880;DHT22;9572;52.378;13.404;2024-01-30T06:25:29;0.20;99.90
18880;DHT22;9572;52.378;13.404;2024-01-30T06:27:56;0.20;99.90
18880;DHT22;9572;52.378;13.404;2024-01-30T06:30:23;0.20;99.90
18880;DHT22;9572;52.378;13.404;2024-01-30T06:32:50;0.20;99.90
18880;DHT22;9572;52.378;13.404;2024-01-30T06:35:17;0.20;99.90
18880;DHT22;9572;52.378;13.404;2024-01-30T06:37:44;0.30;99.90
18880;DHT22;9572;52.378;13.404;2024-01-30T06:40:12;0.30;99.90
18880;DHT22;9572;52.378;13.404;2024-01-30T06:42:39;0.30;99.90
18880;DHT22;9572;52.378;13.404;2024-01-30T06:45:07;0.40;99.90
18880;DHT22;9572;52.378;13.404;2024-01-30T06:47:34;0.30;99.90
18880;DHT22;9572;52.378;13.404;2024-01-30T06:50:01;0.40;99.90
18880;DHT22;9572;52.378;13.404;2024-01-30T06:52:29;0.30;99.90
18880;DHT22;9572;52.378;13.404;2024-01-30T06:54:55;0.30;99.90
18880;DHT22;9572;52.378;13.404;2024-01-30T06:57:24;0.30;99.90
18880;DHT22;9572;52.378;13.404;2024-01-30T06:59:56;0.30;99.90
18880;DHT22;9572;52.378;13.404;2024-01-30T07:02:22;0.30;99.90
18880;DHT22;9572;52.378;13.404;2024-01-30T07:04:50;0.40;99.90
18880;DHT22;9572;52.378;13.404;2024-01-30T07:07:17;0.40;99.90
18880;DHT22;9572;52.378;13.404;2024-01-30T07:09:44;0.40;99.90
18880;DHT22;9572;52.378;13.404;2024-01-30T07:12:10;0.50;99.90
18880;DHT22;9572;52.378;13.404;2024-01-30T07:14:39;0.50;99.90
18880;DHT22;9572;52.378;13.404;2024-01-30T07:17:06;0.50;99.90
18880;DHT22;9572;52.378;13.404;2024-01-30T07:19:33;0.60;99.90
18880;DHT22;9572;52.378;13.404;2024-01-30T07:22:00;0.60;99.90
18880;DHT22;9572;52.378;13.404;2024-01-30T07:24:27;0.70;99.90
18880;DHT22;9572;52.378;13.404;2024-01-30T07:26:54;0.80;99.90
18880;DHT22;9572;52.378;13.404;2024-01-30T07:29:21;0.90;99.90
18880;DHT22;9572;52.378;13.404;2024-01-30T07:31:49;1.00;99.90
18880;DHT22;9572;52.378;13.404;2024-01-30T07:34:16;1.00;99.90
18880;DHT22;9572;52.378;13.404;2024-01-30T07:36:43;1.10;99.90
18880;DHT22;9572;52.378;13.404;2024-01-30T07:39:10;1.30;99.90
18880;DHT22;9572;52.378;13.404;2024-01-30T07:41:37;1.30;99.90
18880;DHT22;9572;52.378;13.404;2024-01-30T07:44:04;1.40;99.90
18880;DHT22;9572;52.378;13.404;2024-01-30T07:46:31;1.50;99.90
18880;DHT22;9572;52.378;13.404;2024-01-30T07:48:59;1.60;99.90
18880;DHT22;9572;52.378;13.404;2024-01-30T07:51:26;1.70;99.90
18880;DHT22;9572;52.378;13.404;2024-01-30T07:53:54;1.70;99.90
18880;DHT22;9572;52.378;13.404;2024-01-30T07:56:23;1.70;99.90
18880;DHT22;9572;52.378;13.404;2024-01-30T07:58:50;1.80;99.90
18880;DHT22;9572;52.378;13.404;2024-01-30T08:01:18;1.90;99.90
18880;DHT22;9572;52.378;13.404;2024-01-30T08:03:45;2.00;99.90
18880;DHT22;9572;52.378;13.404;2024-01-30T08:06:13;2.10;99.90
18880;DHT22;9572;52.378;13.404;2024-01-30T08:08:40;2.20;99.90
18880;DHT22;9572;52.378;13.404;2024-01-30T08:11:07;2.10;99.90
18880;DHT22;9572;52.378;13.404;2024-01-30T08:13:34;2.20;99.90
18880;DHT22;9572;52.378;13.404;2024-01-30T08:16:01;2.30;99.90
18880;DHT22;9572;52.378;13.404;2024-01-30T08:18:28;2.30;99.90
18880;DHT22;9572;52.378;13.404;2024-01-30T08:20:54;2.40;99.90
18880;DHT22;9572;52.378;13.404;2024-01-30T08:23:23;2.40;99.90
18880;DHT22;9572;52.378;13.404;2024-01-30T08:25:49;2.50;99.90
18880;DHT22;9572;52.378;13.404;2024-01-30T08:28:16;2.60;99.90
18880;DHT22;9572;52.378;13.404;2024-01-30T08:30:43;2.60;99.90
18880;DHT22;9572;52.378;13.404;2024-01-30T08:33:10;2.70;99.90
18880;DHT22;9572;52.378;13.404;2024-01-30T08:35:37;2.80;99.90
18880;DHT22;9572;52.378;13.404;2024-01-30T08:38:04;2.90;99.90
18880;DHT22;9572;52.378;13.404;2024-01-30T08:40:32;3.00;99.90
18880;DHT22;9572;52.378;13.404;2024-01-30T08:42:59;3.20;99.90
18880;DHT22;9572;52.378;13.404;2024-01-30T08:45:26;3.30;99.90
18880;DHT22;9572;52.378;13.404;2024-01-30T08:47:53;3.40;99.90
18880;DHT22;9572;52.378;13.404;2024-01-30T08:50:19;3.40;99.90
18880;DHT22;9572;52.378;13.404;2024-01-30T08:52:46;3.50;99.90
18880;DHT22;9572;52.378;13.404;2024-01-30T08:55:13;3.60;99.90
18880;DHT22;9572;52.378;13.404;2024-01-30T08:57:41;3.70;99.90
18880;DHT22;9572;52.378;13.404;2024-01-30T09:00:09;3.70;99.90
18880;DHT22;9572;52.378;13.404;2024-01-30T09:02:36;3.80;99.90
18880;DHT22;9572;52.378;13.404;2024-01-30T09:05:04;3.90;99.90
18880;DHT22;9572;52.378;13.404;2024-01-30T09:07:30;3.90;99.90
18880;DHT22;9572;52.378;13.404;2024-01-30T09:09:57;3.90;99.90
18880;DHT22;9572;52.378;13.404;2024-01-30T09:12:24;4.00;99.90
18880;DHT22;9572;52.378;13.404;2024-01-30T09:14:52;4.10;99.90
18880;DHT22;9572;52.378;13.404;2024-01-30T09:17:20;4.10;99.90
18880;DHT22;9572;52.378;13.404;2024-01-30T09:19:46;4.20;99.90
18880;DHT22;9572;52.378;13.404;2024-01-30T09:22:13;4.30;99.90
18880;DHT22;9572;52.378;13.404;2024-01-30T09:24:40;4.30;99.90
18880;DHT22;9572;52.378;13.404;2024-01-30T09:27:07;4.30;99.90
18880;DHT22;9572;52.378;13.404;2024-01-30T09:29:34;4.40;99.90
18880;DHT22;9572;52.378;13.404;2024-01-30T09:32:04;4.50;99.90
18880;DHT22;9572;52.378;13.404;2024-01-30T09:34:31;4.60;99.90
18880;DHT22;9572;52.378;13.404;2024-01-30T09:36:58;4.70;99.90
18880;DHT22;9572;52.378;13.404;2024-01-30T09:39:25;4.80;99.90
18880;DHT22;9572;52.378;13.404;2024-01-30T09:41:59;4.90;99.90
18880;DHT22;9572;52.378;13.404;2024-01-30T09:44:29;4.90;99.90
18880;DHT22;9572;52.378;13.404;2024-01-30T09:46:56;4.90;99.90
18880;DHT22;9572;52.378;13.404;2024-01-30T09:49:26;5.00;99.90
18880;DHT22;9572;52.378;13.404;2024-01-30T09:51:53;5.00;99.90
18880;DHT22;9572;52.378;13.404;2024-01-30T09:54:21;5.10;99.90
18880;DHT22;9572;52.378;13.404;2024-01-30T09:56:48;5.20;99.90
18880;DHT22;9572;52.378;13.404;2024-01-30T09:59:15;5.30;99.90
18880;DHT22;9572;52.378;13.404;2024-01-30T10:01:42;5.30;99.90
18880;DHT22;9572;52.378;13.404;2024-01-30T10:04:10;5.30;99.90
18880;DHT22;9572;52.378;13.404;2024-01-30T10:06:40;5.40;99.90
18880;DHT22;9572;52.378;13.404;2024-01-30T10:09:07;5.40;99.90
18880;DHT22;9572;52.378;13.404;2024-01-30T10:11:35;5.50;99.90
18880;DHT22;9572;52.378;13.404;2024-01-30T10:14:02;5.60;99.90
18880;DHT22;9572;52.378;13.404;2024-01-30T10:16:29;5.70;99.90
18880;DHT22;9572;52.378;13.404;2024-01-30T10:18:56;5.80;99.90
18880;DHT22;9572;52.378;13.404;2024-01-30T10:21:23;6.00;99.90
18880;DHT22;9572;52.378;13.404;2024-01-30T10:23:51;6.10;99.90
18880;DHT22;9572;52.378;13.404;2024-01-30T10:26:19;6.20;99.90
18880;DHT22;9572;52.378;13.404;2024-01-30T10:28:45;6.20;99.90
18880;DHT22;9572;52.378;13.404;2024-01-30T10:31:16;6.30;99.90
18880;DHT22;9572;52.378;13.404;2024-01-30T10:33:44;6.40;99.90
18880;DHT22;9572;52.378;13.404;2024-01-30T10:36:13;6.50;99.90
18880;DHT22;9572;52.378;13.404;2024-01-30T10:38:43;6.60;99.90
18880;DHT22;9572;52.378;13.404;2024-01-30T10:41:15;6.60;99.90
18880;DHT22;9572;52.378;13.404;2024-01-30T10:43:50;6.70;99.90
18880;DHT22;9572;52.378;13.404;2024-01-30T10:46:20;6.70;99.90
18880;DHT22;9572;52.378;13.404;2024-01-30T10:48:51;6.70;99.90
18880;DHT22;9572;52.378;13.404;2024-01-30T10:51:22;6.70;99.90
18880;DHT22;9572;52.378;13.404;2024-01-30T10:53:50;6.80;99.90
18880;DHT22;9572;52.378;13.404;2024-01-30T10:56:21;6.90;99.90
18880;DHT22;9572;52.378;13.404;2024-01-30T10:58:49;6.90;99.90
18880;DHT22;9572;52.378;13.404;2024-01-30T11:01:16;7.00;99.90
18880;DHT22;9572;52.378;13.404;2024-01-30T11:03:44;7.00;99.90
18880;DHT22;9572;52.378;13.404;2024-01-30T11:06:11;7.00;99.90
18880;DHT22;9572;52.378;13.404;2024-01-30T11:08:39;7.00;99.90
18880;DHT22;9572;52.378;13.404;2024-01-30T11:11:09;6.90;99.90
18880;DHT22;9572;52.378;13.404;2024-01-30T11:13:37;7.00;99.90
18880;DHT22;9572;52.378;13.404;2024-01-30T11:16:05;6.90;99.90
18880;DHT22;9572;52.378;13.404;2024-01-30T11:18:33;7.00;99.90
18880;DHT22;9572;52.378;13.404;2024-01-30T11:21:05;7.00;99.90
18880;DHT22;9572;52.378;13.404;2024-01-30T11:23:33;7.00;99.90
18880;DHT22;9572;52.378;13.404;2024-01-30T11:26:01;7.00;99.90
18880;DHT22;9572;52.378;13.404;2024-01-30T11:28:33;7.00;99.90
18880;DHT22;9572;52.378;13.404;2024-01-30T11:31:06;7.10;99.90
18880;DHT22;9572;52.378;13.404;2024-01-30T11:33:33;7.10;99.90
18880;DHT22;9572;52.378;13.404;2024-01-30T11:36:01;7.20;99.90
18880;DHT22;9572;52.378;13.404;2024-01-30T11:38:28;7.20;99.90
18880;DHT22;9572;52.378;13.404;2024-01-30T11:40:56;7.40;99.90
18880;DHT22;9572;52.378;13.404;2024-01-30T11:43:24;7.50;99.90
18880;DHT22;9572;52.378;13.404;2024-01-30T11:45:51;7.50;99.90
18880;DHT22;9572;52.378;13.404;2024-01-30T11:48:19;7.50;99.90
18880;DHT22;9572;52.378;13.404;2024-01-30T11:50:46;7.60;99.90
18880;DHT22;9572;52.378;13.404;2024-01-30T11:53:13;7.60;99.90
18880;DHT22;9572;52.378;13.404;2024-01-30T11:55:41;7.80;99.90
18880;DHT22;9572;52.378;13.404;2024-01-30T11:58:08;7.80;99.90
18880;DHT22;9572;52.378;13.404;2024-01-30T12:00:35;7.80;99.90
18880;DHT22;9572;52.378;13.404;2024-01-30T12:03:02;7.80;99.90
18880;DHT22;9572;52.378;13.404;2024-01-30T12:05:32;7.90;99.90
18880;DHT22;9572;52.378;13.404;2024-01-30T12:07:59;8.00;99.90
18880;DHT22;9572;52.378;13.404;2024-01-30T12:10:26;8.10;99.90
18880;DHT22;9572;52.378;13.404;2024-01-30T12:12:54;8.00;99.90
18880;DHT22;9572;52.378;13.404;2024-01-30T12:15:22;7.90;99.90
18880;DHT22;9572;52.378;13.404;2024-01-30T12:17:49;8.00;99.90
18880;DHT22;9572;52.378;13.404;2024-01-30T12:20:18;8.00;99.90
18880;DHT22;9572;52.378;13.404;2024-01-30T12:22:48;8.00;99.90
18880;DHT22;9572;52.378;13.404;2024-01-30T12:25:16;8.10;99.90
18880;DHT22;9572;52.378;13.404;2024-01-30T12:27:44;8.00;99.90
18880;DHT22;9572;52.378;13.404;2024-01-30T12:30:13;7.90;99.90
18880;DHT22;9572;52.378;13.404;2024-01-30T12:32:41;7.90;99.90
18880;DHT22;9572;52.378;13.404;2024-01-30T12:35:10;8.00;99.90
18880;DHT22;9572;52.378;13.404;2024-01-30T12:37:37;8.10;99.90
18880;DHT22;9572;52.378;13.404;2024-01-30T12:40:07;8.10;99.90
18880;DHT22;9572;52.378;13.404;2024-01-30T12:42:34;8.10;99.90
18880;DHT22;9572;52.378;13.404;2024-01-30T12:45:02;8.20;99.90
18880;DHT22;9572;52.378;13.404;2024-01-30T12:47:29;8.20;99.90
18880;DHT22;9572;52.378;13.404;2024-01-30T12:49:56;8.30;99.90
18880;DHT22;9572;52.378;13.404;2024-01-30T12:52:23;8.30;99.90
18880;DHT22;9572;52.378;13.404;2024-01-30T12:54:51;8.40;99.90
18880;DHT22;9572;52.378;13.404;2024-01-30T12:57:19;8.40;99.90
18880;DHT22;9572;52.378;13.404;2024-01-30T12:59:46;8.40;99.90
18880;DHT22;9572;52.378;13.404;2024-01-30T13:02:13;8.50;99.90
18880;DHT22;9572;52.378;13.404;2024-01-30T13:04:41;8.50;99.90
18880;DHT22;9572;52.378;13.404;2024-01-30T13:07:08;8.60;99.90
18880;DHT22;9572;52.378;13.404;2024-01-30T13:09:35;8.70;99.90
18880;DHT22;9572;52.378;13.404;2024-01-30T13:12:04;8.60;99.90
18880;DHT22;9572;52.378;13.404;2024-01-30T13:14:32;8.60;99.90
18880;DHT22;9572;52.378;13.404;2024-01-30T13:16:59;8.60;99.90
18880;DHT22;9572;52.378;13.404;2024-01-30T13:19:25;8.60;99.90
18880;DHT22;9572;52.378;13.404;2024-01-30T13:21:52;8.70;99.90
18880;DHT22;9572;52.378;13.404;2024-01-30T13:24:19;8.70;99.90
18880;DHT22;9572;52.378;13.404;2024-01-30T13:26:47;8.60;99.90
18880;DHT22;9572;52.378;13.404;2024-01-30T13:29:14;8.60;99.90
18880;DHT22;9572;52.378;13.404;2024-01-30T13:31:43;8.60;99.90
18880;DHT22;9572;52.378;13.404;2024-01-30T13:34:11;8.60;99.90
18880;DHT22;9572;52.378;13.404;2024-01-30T13:36:39;8.70;99.90
18880;DHT22;9572;52.378;13.404;2024-01-30T13:39:06;8.70;99.90
18880;DHT22;9572;52.378;13.404;2024-01-30T13:41:36;8.80;99.90
18880;DHT22;9572;52.378;13.404;2024-01-30T13:44:03;8.80;99.90
18880;DHT22;9572;52.378;13.404;2024-01-30T13:46:30;8.80;99.90
18880;DHT22;9572;52.378;13.404;2024-01-30T13:48:59;8.70;99.90
18880;DHT22;9572;52.378;13.404;2024-01-30T13:51:25;8.70;99.90
18880;DHT22;9572;52.378;13.404;2024-01-30T13:53:52;8.70;99.90
18880;DHT22;9572;52.378;13.404;2024-01-30T13:56:19;8.70;99.90
18880;DHT22;9572;52.378;13.404;2024-01-30T13:58:47;8.80;99.90
18880;DHT22;9572;52.378;13.404;2024-01-30T14:01:14;8.70;99.90
18880;DHT22;9572;52.378;13.404;2024-01-30T14:03:41;8.70;99.90
18880;DHT22;9572;52.378;13.404;2024-01-30T14:06:09;8.70;99.90
18880;DHT22;9572;52.378;13.404;2024-01-30T14:08:36;8.70;99.90
18880;DHT22;9572;52.378;13.404;2024-01-30T14:11:03;8.70;99.90
18880;DHT22;9572;52.378;13.404;2024-01-30T14:13:30;8.70;99.90
18880;DHT22;9572;52.378;13.404;2024-01-30T14:15:58;8.70;99.90
18880;DHT22;9572;52.378;13.404;2024-01-30T14:18:25;8.70;99.90
18880;DHT22;9572;52.378;13.404;2024-01-30T14:20:52;8.70;99.90
18880;DHT22;9572;52.378;13.404;2024-01-30T14:23:21;8.60;99.90
18880;DHT22;9572;52.378;13.404;2024-01-30T14:25:48;8.60;99.90
18880;DHT22;9572;52.378;13.404;2024-01-30T14:28:17;8.60;99.90
18880;DHT22;9572;52.378;13.404;2024-01-30T14:30:43;8.60;99.90
18880;DHT22;9572;52.378;13.404;2024-01-30T14:33:10;8.60;99.90
18880;DHT22;9572;52.378;13.404;2024-01-30T14:35:38;8.60;99.90
18880;DHT22;9572;52.378;13.404;2024-01-30T14:38:05;8.50;99.90
18880;DHT22;9572;52.378;13.404;2024-01-30T14:40:34;8.40;99.90
18880;DHT22;9572;52.378;13.404;2024-01-30T14:43:01;8.40;99.90
18880;DHT22;9572;52.378;13.404;2024-01-30T14:45:29;8.30;99.90
18880;DHT22;9572;52.378;13.404;2024-01-30T14:47:57;8.20;99.90
18880;DHT22;9572;52.378;13.404;2024-01-30T14:50:24;8.10;99.90
18880;DHT22;9572;52.378;13.404;2024-01-30T14:52:51;8.00;99.90
18880;DHT22;9572;52.378;13.404;2024-01-30T14:55:17;8.00;99.90
18880;DHT22;9572;52.378;13.404;2024-01-30T14:57:46;7.90;99.90
18880;DHT22;9572;52.378;13.404;2024-01-30T15:00:16;7.90;99.90
18880;DHT22;9572;52.378;13.404;2024-01-30T15:02:43;7.80;99.90
18880;DHT22;9572;52.378;13.404;2024-01-30T15:05:10;7.70;99.90
18880;DHT22;9572;52.378;13.404;2024-01-30T15:07:37;7.80;99.90
18880;DHT22;9572;52.378;13.404;2024-01-30T15:10:05;7.80;99.90
18880;DHT22;9572;52.378;13.404;2024-01-30T15:12:32;7.80;99.90
18880;DHT22;9572;52.378;13.404;2024-01-30T15:15:00;7.70;99.90
18880;DHT22;9572;52.378;13.404;2024-01-30T15:17:27;7.50;99.90
18880;DHT22;9572;52.378;13.404;2024-01-30T15:19:54;7.40;99.90
18880;DHT22;9572;52.378;13.404;2024-01-30T15:22:21;7.30;99.90
18880;DHT22;9572;52.378;13.404;2024-01-30T15:24:48;7.20;99.90
18880;DHT22;9572;52.378;13.404;2024-01-30T15:27:14;7.30;99.90
18880;DHT22;9572;52.378;13.404;2024-01-30T15:29:41;7.20;99.90
18880;DHT22;9572;52.378;13.404;2024-01-30T15:32:09;7.20;99.90
18880;DHT22;9572;52.378;13.404;2024-01-30T15:34:36;7.00;99.90
18880;DHT22;9572;52.378;13.404;2024-01-30T15:37:03;7.00;99.90
18880;DHT22;9572;52.378;13.404;2024-01-30T15:39:30;6.90;99.90
18880;DHT22;9572;52.378;13.404;2024-01-30T15:41:57;6.90;99.90
18880;DHT22;9572;52.378;13.404;2024-01-30T15:44:24;6.80;99.90
18880;DHT22;9572;52.378;13.404;2024-01-30T15:46:51;6.70;99.90